Mona, Utah
Current Conditions -  °F | °C
As of 6:15 AM on Sunday 21 Dec 2014 (Local Time) from KPVU Reporting Station
Overcast Overcast  
Wind Chill: 31°   Ceiling: 1600
Heat Index: 37°   Visibility: 10mi
Dew Point: 34°   Wind: 8mph
Humidity: 87%   Direction: 90°E
Pressure: 30.04"   Gusts: NA
Location:  39.82°N, 111.86°W
Report Text: KPVU 211315Z AUTO 09007KT 10SM OVC016 03/01 A3004 RMK AO1 P0005
Loading
Personal Weather Stations






























Interactive Weather Map New forecast layout! Learn more

10-Day Weather Forecast

Advertisements
Track Severe Weather on mobile